createdAt,value
2022-08-10T00:01:34.471Z,58.00
2022-08-10T00:04:42.520Z,58.10
2022-08-10T00:07:47.755Z,58.30
2022-08-10T00:10:52.836Z,58.30
2022-08-10T00:13:57.921Z,58.40
2022-08-10T00:17:06.063Z,58.60
2022-08-10T00:20:16.601Z,58.60
2022-08-10T00:23:21.774Z,58.80
2022-08-10T00:26:26.921Z,58.80
2022-08-10T00:29:52.337Z,58.90
2022-08-10T00:32:57.532Z,58.90
2022-08-10T00:36:05.209Z,59.10
2022-08-10T00:39:15.887Z,59.30
2022-08-10T00:42:21.052Z,59.30
2022-08-10T00:45:26.332Z,59.40
2022-08-10T00:48:32.661Z,59.50
2022-08-10T00:51:48.055Z,59.70
2022-08-10T00:54:54.794Z,59.80
2022-08-10T00:58:00.597Z,59.80
2022-08-10T01:01:05.726Z,59.90
2022-08-10T01:04:58.514Z,59.90
2022-08-10T01:07:59.560Z,60.00
2022-08-10T01:11:42.385Z,60.50
2022-08-10T01:14:40.578Z,60.30
2022-08-10T01:17:55.347Z,60.30
2022-08-10T01:21:32.558Z,60.60
2022-08-10T01:25:12.053Z,60.80
2022-08-10T01:28:29.089Z,61.10
2022-08-10T01:31:43.202Z,60.90
2022-08-10T01:34:54.711Z,61.00
2022-08-10T01:38:06.359Z,61.10
2022-08-10T01:41:14.902Z,61.10
2022-08-10T01:44:26.714Z,61.20
2022-08-10T01:47:52.935Z,61.30
2022-08-10T01:51:03.431Z,62.20
2022-08-10T01:54:13.110Z,61.50
2022-08-10T01:57:20.671Z,61.60
2022-08-10T02:00:27.750Z,61.70
2022-08-10T02:04:03.516Z,61.80
2022-08-10T02:07:07.087Z,62.10
2022-08-10T02:10:19.271Z,62.00
2022-08-10T02:13:25.405Z,62.80
2022-08-10T02:16:32.781Z,62.20
2022-08-10T02:19:44.066Z,62.30
2022-08-10T02:22:55.398Z,62.50
2022-08-10T02:26:02.796Z,62.50
2022-08-10T02:29:09.338Z,62.60
2022-08-10T02:32:24.534Z,62.70
2022-08-10T02:35:54.518Z,62.80
2022-08-10T02:39:04.086Z,63.00
2022-08-10T02:45:12.426Z,62.90
2022-08-10T02:45:46.766Z,63.20
2022-08-10T02:48:56.987Z,63.20
2022-08-10T02:52:10.388Z,63.20
2022-08-10T02:55:26.986Z,63.40
2022-08-10T02:58:37.574Z,63.50
2022-08-10T03:01:46.400Z,63.50
2022-08-10T03:04:58.053Z,63.60
2022-08-10T03:08:09.878Z,63.70
2022-08-10T03:12:37.933Z,63.90
2022-08-10T03:14:54.043Z,63.90
2022-08-10T03:18:00.469Z,64.00
2022-08-10T03:21:11.425Z,64.00
2022-08-10T03:24:30.062Z,64.10
2022-08-10T03:27:38.617Z,64.30
2022-08-10T03:30:46.049Z,64.20
2022-08-10T03:33:51.842Z,64.30
2022-08-10T03:36:56.886Z,64.50
2022-08-10T03:40:05.125Z,64.50
2022-08-10T03:43:11.850Z,64.70
2022-08-10T03:46:19.424Z,64.70
2022-08-10T03:49:26.153Z,64.80
2022-08-10T03:52:31.748Z,65.60
2022-08-10T03:56:28.632Z,64.90
2022-08-10T03:59:08.251Z,65.20
2022-08-10T04:02:46.908Z,65.10
2022-08-10T04:05:40.543Z,65.20
2022-08-10T04:08:46.578Z,65.20
2022-08-10T04:11:54.268Z,65.30
2022-08-10T04:14:59.333Z,65.50
2022-08-10T04:18:06.395Z,65.40
2022-08-10T04:21:14.971Z,65.50
2022-08-10T04:24:29.845Z,65.60
2022-08-10T04:27:40.880Z,65.70
2022-08-10T04:30:51.082Z,65.80
2022-08-10T04:33:57.230Z,65.80
2022-08-10T04:37:09.357Z,65.90
2022-08-10T04:40:28.836Z,66.00
2022-08-10T04:43:39.034Z,66.10
2022-08-10T04:46:57.667Z,66.20
2022-08-10T04:50:10.218Z,66.10
2022-08-10T04:53:15.392Z,66.30
2022-08-10T04:56:20.473Z,66.30
2022-08-10T04:59:40.707Z,66.40
2022-08-10T05:02:46.630Z,66.50
2022-08-10T05:05:52.811Z,66.50
2022-08-10T05:08:59.623Z,66.50
2022-08-10T05:12:04.643Z,66.60
2022-08-10T05:15:16.985Z,66.70
2022-08-10T05:18:22.185Z,66.90
2022-08-10T05:22:02.946Z,66.80
2022-08-10T05:24:52.522Z,66.90
2022-08-10T05:27:57.849Z,67.00
2022-08-10T05:31:05.545Z,67.10
2022-08-10T05:34:20.404Z,67.30
2022-08-10T05:38:12.902Z,67.40
2022-08-10T05:40:56.861Z,67.40
2022-08-10T05:44:02.247Z,67.50
2022-08-10T05:47:12.888Z,67.70
2022-08-10T05:50:19.873Z,67.90
2022-08-10T05:54:01.746Z,67.80
2022-08-10T05:56:55.100Z,68.10
2022-08-10T06:00:34.771Z,68.00
2022-08-10T06:03:40.560Z,68.20
2022-08-10T06:06:49.073Z,68.40
2022-08-10T06:09:58.943Z,68.30
2022-08-10T06:13:27.143Z,68.40
2022-08-10T06:16:36.015Z,68.50
2022-08-10T06:19:44.503Z,68.50
2022-08-10T06:22:49.506Z,68.60
2022-08-10T06:26:10.176Z,68.40
2022-08-10T06:29:21.520Z,68.40
2022-08-10T06:32:28.653Z,68.40
2022-08-10T06:35:38.670Z,68.30
2022-08-10T06:38:46.860Z,68.20
2022-08-10T06:41:57.761Z,68.10
2022-08-10T06:45:30.520Z,68.00
2022-08-10T06:48:39.134Z,67.80
2022-08-10T06:51:57.462Z,67.70
2022-08-10T06:55:05.483Z,67.80
2022-08-10T06:58:15.528Z,67.50
2022-08-10T07:01:26.574Z,67.40
2022-08-10T07:04:38.482Z,67.30
2022-08-10T07:07:48.584Z,67.20
2022-08-10T07:10:59.042Z,67.00
2022-08-10T07:14:15.458Z,66.80
2022-08-10T07:17:25.800Z,66.60
2022-08-10T07:20:31.773Z,66.50
2022-08-10T07:23:58.843Z,66.30
2022-08-10T07:27:07.798Z,66.10
2022-08-10T07:30:14.112Z,65.80
2022-08-10T07:33:22.224Z,65.60
2022-08-10T07:36:29.585Z,65.20
2022-08-10T07:39:57.908Z,65.00
2022-08-10T07:43:08.573Z,64.80
2022-08-10T07:46:16.971Z,64.50
2022-08-10T07:49:29.369Z,64.40
2022-08-10T07:52:37.874Z,64.10
2022-08-10T07:56:05.507Z,63.90
2022-08-10T07:59:17.568Z,63.70
2022-08-10T08:02:28.766Z,63.50
2022-08-10T08:05:58.905Z,63.20
2022-08-10T08:09:03.691Z,62.90
2022-08-10T08:12:13.393Z,62.70
2022-08-10T08:16:18.640Z,62.30
2022-08-10T08:19:04.085Z,62.10
2022-08-10T08:24:14.785Z,61.80
2022-08-10T08:25:41.204Z,61.50
2022-08-10T08:28:50.206Z,61.30
2022-08-10T08:32:01.829Z,61.00
2022-08-10T08:35:10.899Z,60.80
2022-08-10T08:38:32.409Z,60.60
2022-08-10T08:42:03.290Z,60.20
2022-08-10T08:45:22.653Z,59.70
2022-08-10T08:48:55.871Z,59.50
2022-08-10T08:52:18.635Z,59.10
2022-08-10T08:56:03.542Z,59.10
2022-08-10T08:59:19.219Z,58.80
2022-08-10T09:02:39.080Z,58.40
2022-08-10T09:05:58.520Z,58.20
2022-08-10T09:09:35.330Z,58.10
2022-08-10T09:12:54.350Z,57.50
2022-08-10T09:16:11.584Z,57.40
2022-08-10T09:19:36.140Z,57.30
2022-08-10T09:22:50.448Z,56.80
2022-08-10T09:25:57.446Z,56.70
2022-08-10T09:29:12.315Z,56.60
2022-08-10T09:36:15.958Z,56.20
2022-08-10T09:36:21.773Z,55.90
2022-08-10T09:40:12.268Z,55.60
2022-08-10T09:43:25.368Z,55.50
2022-08-10T09:46:44.583Z,55.30
2022-08-10T09:50:04.888Z,55.00
2022-08-10T09:53:23.366Z,54.80
2022-08-10T09:56:38.053Z,54.30
2022-08-10T10:00:07.523Z,54.10
2022-08-10T10:03:23.963Z,54.00
2022-08-10T10:06:42.454Z,53.60
2022-08-10T10:09:57.090Z,53.20
2022-08-10T10:13:08.374Z,53.00
2022-08-10T10:16:28.713Z,52.80
2022-08-10T10:19:50.278Z,52.30
2022-08-10T10:23:01.945Z,52.10
2022-08-10T10:26:22.093Z,51.90
2022-08-10T10:29:56.872Z,51.30
2022-08-10T10:33:15.430Z,51.20
2022-08-10T10:36:22.147Z,51.00
2022-08-10T10:39:30.245Z,51.70
2022-08-10T10:42:49.323Z,50.90
2022-08-10T10:46:06.050Z,50.40
2022-08-10T10:49:23.556Z,50.20
2022-08-10T10:52:39.752Z,49.80
2022-08-10T10:56:15.029Z,49.80
2022-08-10T10:59:56.401Z,49.50
2022-08-10T11:03:09.409Z,49.20
2022-08-10T11:06:39.519Z,48.70
2022-08-10T11:10:04.785Z,48.60
2022-08-10T11:14:26.345Z,48.70
2022-08-10T11:17:14.310Z,48.10
2022-08-10T11:20:28.516Z,48.00
2022-08-10T11:23:41.941Z,47.80
2022-08-10T11:26:52.253Z,47.60
2022-08-10T11:30:04.852Z,47.40
2022-08-10T11:33:32.678Z,46.90
2022-08-10T11:36:48.015Z,46.60
2022-08-10T11:39:55.692Z,46.50
2022-08-10T11:43:15.031Z,47.20
2022-08-10T11:46:28.681Z,46.70
2022-08-10T11:49:42.360Z,46.70
2022-08-10T11:52:55.994Z,46.20
2022-08-10T11:56:09.629Z,45.90
2022-08-10T11:59:37.563Z,46.40
2022-08-10T12:02:47.454Z,46.30
2022-08-10T12:05:58.576Z,46.00
2022-08-10T12:10:09.364Z,45.60
2022-08-10T12:12:33.469Z,45.40
2022-08-10T12:15:48.835Z,45.20
2022-08-10T12:18:59.683Z,44.90
2022-08-10T12:22:10.438Z,44.50
2022-08-10T12:25:57.584Z,44.20
2022-08-10T12:28:52.507Z,44.20
2022-08-10T12:32:04.815Z,44.10
2022-08-10T12:35:22.791Z,44.00
2022-08-10T12:38:42.524Z,43.90
2022-08-10T12:41:55.684Z,43.90
2022-08-10T12:45:06.290Z,43.90
2022-08-10T12:48:19.513Z,43.90
2022-08-10T12:51:29.019Z,43.70
2022-08-10T12:54:39.059Z,43.60
2022-08-10T12:57:44.827Z,43.40
2022-08-10T13:01:14.712Z,43.40
2022-08-10T13:04:24.367Z,43.30
2022-08-10T13:08:04.102Z,43.20
2022-08-10T13:11:06.000Z,43.10
2022-08-10T13:14:35.585Z,42.90
2022-08-10T13:17:43.145Z,42.80
2022-08-10T13:20:57.458Z,42.80
2022-08-10T13:24:07.909Z,42.70
2022-08-10T13:27:25.936Z,42.40
2022-08-10T13:30:50.884Z,42.30
2022-08-10T13:34:36.580Z,42.20
2022-08-10T13:37:28.176Z,42.00
2022-08-10T13:40:35.616Z,41.90
2022-08-10T13:43:54.830Z,41.70
2022-08-10T13:47:02.709Z,41.30
2022-08-10T13:50:13.919Z,41.50
2022-08-10T13:53:21.075Z,41.20
2022-08-10T13:56:27.458Z,41.10
2022-08-10T14:00:34.960Z,41.20
2022-08-10T14:03:05.548Z,41.10
2022-08-10T14:06:15.567Z,41.20
2022-08-10T14:09:29.896Z,41.10
2022-08-10T14:12:35.688Z,41.00
2022-08-10T14:15:48.174Z,41.00
2022-08-10T14:18:59.120Z,40.80
2022-08-10T14:22:05.050Z,40.80
2022-08-10T14:25:12.111Z,40.70
2022-08-10T14:28:23.838Z,40.70
2022-08-10T14:31:34.416Z,40.70
2022-08-10T14:34:59.404Z,40.50
2022-08-10T14:38:15.375Z,40.50
2022-08-10T14:42:01.063Z,41.20
2022-08-10T14:44:56.611Z,40.60
2022-08-10T14:48:11.461Z,40.60
2022-08-10T14:51:22.269Z,40.20
2022-08-10T14:54:30.590Z,40.20
2022-08-10T14:58:17.154Z,40.00
2022-08-10T15:01:02.122Z,40.00
2022-08-10T15:04:13.685Z,39.90
2022-08-10T15:07:23.606Z,39.90
2022-08-10T15:10:29.318Z,39.90
2022-08-10T15:13:35.706Z,40.00
2022-08-10T15:16:41.075Z,40.00
2022-08-10T15:20:02.804Z,40.10
2022-08-10T15:23:30.689Z,39.90
2022-08-10T15:26:38.390Z,40.10
2022-08-10T15:29:58.301Z,39.90
2022-08-10T15:33:21.206Z,39.90
2022-08-10T15:37:36.816Z,39.90
2022-08-10T15:40:40.607Z,39.90
2022-08-10T15:44:00.786Z,40.00
2022-08-10T15:47:08.525Z,40.10
2022-08-10T15:50:21.403Z,40.00
2022-08-10T15:53:49.499Z,40.10
2022-08-10T15:57:05.381Z,40.10
2022-08-10T16:00:19.530Z,40.10
2022-08-10T16:03:28.878Z,40.10
2022-08-10T16:06:39.091Z,40.20
2022-08-10T16:10:24.032Z,40.10
2022-08-10T16:13:59.576Z,40.00
2022-08-10T16:16:52.425Z,40.10
2022-08-10T16:20:01.539Z,40.20
2022-08-10T16:23:08.739Z,40.20
2022-08-10T16:26:29.458Z,40.20
2022-08-10T16:29:55.796Z,40.20
2022-08-10T16:33:02.703Z,40.20
2022-08-10T16:36:17.105Z,40.30
2022-08-10T16:39:57.012Z,40.20
2022-08-10T16:42:52.516Z,40.30
2022-08-10T16:46:00.092Z,40.30
2022-08-10T16:49:05.785Z,40.40
2022-08-10T16:52:17.060Z,40.30
2022-08-10T16:55:49.041Z,40.30
2022-08-10T16:59:03.031Z,40.30
2022-08-10T17:02:09.515Z,40.30
2022-08-10T17:06:11.169Z,40.40
2022-08-10T17:08:51.874Z,40.40
2022-08-10T17:11:59.690Z,40.40
2022-08-10T17:15:16.530Z,40.50
2022-08-10T17:18:31.752Z,40.40
2022-08-10T17:21:51.054Z,40.50
2022-08-10T17:25:02.326Z,40.40
2022-08-10T17:28:10.188Z,40.50
2022-08-10T17:31:39.741Z,40.50
2022-08-10T17:35:00.053Z,40.50
2022-08-10T17:38:13.893Z,40.60
2022-08-10T17:41:19.321Z,40.60
2022-08-10T17:44:25.472Z,40.80
2022-08-10T17:47:38.157Z,40.90
2022-08-10T17:50:51.115Z,40.90
2022-08-10T17:54:00.184Z,40.90
2022-08-10T17:57:12.006Z,40.90
2022-08-10T18:00:20.161Z,40.90
2022-08-10T18:03:31.360Z,41.00
2022-08-10T18:06:38.033Z,40.90
2022-08-10T18:09:46.700Z,41.10
2022-08-10T18:12:56.579Z,41.10
2022-08-10T18:16:01.808Z,41.10
2022-08-10T18:19:12.150Z,41.20
2022-08-10T18:22:19.180Z,41.30
2022-08-10T18:25:32.899Z,41.30
2022-08-10T18:28:42.183Z,41.30
2022-08-10T18:31:49.514Z,41.40
2022-08-10T18:35:02.958Z,41.50
2022-08-10T18:38:09.311Z,41.40
2022-08-10T18:41:19.506Z,41.50
2022-08-10T18:44:31.309Z,41.50
2022-08-10T18:47:59.189Z,41.60
2022-08-10T18:51:13.577Z,41.60
2022-08-10T18:54:38.925Z,41.70
2022-08-10T18:58:13.063Z,41.70
2022-08-10T19:01:35.222Z,41.70
2022-08-10T19:05:02.891Z,41.90
2022-08-10T19:08:34.598Z,41.90
2022-08-10T19:11:57.503Z,42.00
2022-08-10T19:15:11.595Z,42.10
2022-08-10T19:18:35.840Z,42.20
2022-08-10T19:21:45.871Z,42.30
2022-08-10T19:25:10.926Z,42.30
2022-08-10T19:28:24.705Z,42.40
2022-08-10T19:31:44.496Z,42.50
2022-08-10T19:35:02.522Z,42.60
2022-08-10T19:38:16.529Z,42.70
2022-08-10T19:41:31.902Z,42.80
2022-08-10T19:44:46.196Z,42.80
2022-08-10T19:47:59.689Z,42.90
2022-08-10T19:51:10.667Z,43.00
2022-08-10T19:54:19.753Z,43.10
2022-08-10T19:57:36.503Z,43.10
2022-08-10T20:00:52.408Z,43.20
2022-08-10T20:04:04.311Z,43.30
2022-08-10T20:07:15.157Z,43.40
2022-08-10T20:10:30.251Z,43.60
2022-08-10T20:13:49.854Z,43.70
2022-08-10T20:17:01.358Z,44.10
2022-08-10T20:20:11.734Z,44.30
2022-08-10T20:23:27.918Z,44.50
2022-08-10T20:26:45.399Z,44.70
2022-08-10T20:29:58.920Z,45.00
2022-08-10T20:33:12.978Z,45.20
2022-08-10T20:36:28.449Z,45.40
2022-08-10T20:39:45.666Z,45.40
2022-08-10T20:42:58.223Z,45.40
2022-08-10T20:46:13.633Z,45.40
2022-08-10T20:49:28.910Z,45.40
2022-08-10T20:52:36.670Z,45.40
2022-08-10T20:56:12.510Z,45.40
2022-08-10T21:00:02.399Z,45.50
2022-08-10T21:03:31.833Z,45.60
2022-08-10T21:06:58.422Z,45.70
2022-08-10T21:10:15.227Z,45.70
2022-08-10T21:13:53.123Z,45.70
2022-08-10T21:17:14.377Z,46.00
2022-08-10T21:20:47.389Z,46.00
2022-08-10T21:24:22.755Z,46.10
2022-08-10T21:27:58.491Z,46.10
2022-08-10T21:34:55.859Z,46.50
2022-08-10T21:38:06.477Z,46.60
2022-08-10T21:41:56.671Z,46.70
2022-08-10T21:45:58.261Z,46.80
2022-08-10T21:49:14.628Z,46.90
2022-08-10T21:52:41.519Z,46.90
2022-08-10T21:56:23.859Z,47.20
2022-08-10T21:59:56.395Z,47.40
2022-08-10T22:03:17.904Z,47.50
2022-08-10T22:06:39.992Z,47.80
2022-08-10T22:10:13.564Z,48.00
2022-08-10T22:13:37.759Z,48.20
2022-08-10T22:17:05.554Z,48.40
2022-08-10T22:20:30.482Z,48.70
2022-08-10T22:24:16.416Z,48.90
2022-08-10T22:27:47.562Z,49.40
2022-08-10T22:31:24.822Z,46.40
2022-08-10T22:31:31.762Z,49.50
2022-08-10T22:35:00.243Z,49.80
2022-08-10T22:38:33.611Z,49.40
2022-08-10T22:42:04.017Z,49.80
2022-08-10T22:45:26.009Z,50.10
2022-08-10T22:48:46.446Z,50.20
2022-08-10T22:52:01.863Z,50.50
2022-08-10T22:55:27.683Z,50.70
2022-08-10T22:58:44.459Z,51.00
2022-08-10T23:02:07.332Z,51.10
2022-08-10T23:05:19.860Z,51.60
2022-08-10T23:08:30.994Z,51.70
2022-08-10T23:11:40.995Z,51.80
2022-08-10T23:14:58.933Z,52.00
2022-08-10T23:18:24.458Z,52.20
2022-08-10T23:22:01.642Z,52.40
2022-08-10T23:25:10.950Z,52.60
2022-08-10T23:28:58.040Z,52.90
2022-08-10T23:32:06.888Z,52.80
2022-08-10T23:36:12.987Z,53.10
2022-08-10T23:38:46.475Z,53.20
2022-08-10T23:42:07.952Z,53.50
2022-08-10T23:45:17.390Z,53.60
2022-08-10T23:48:28.231Z,53.70
2022-08-10T23:51:54.484Z,53.90
2022-08-10T23:55:07.769Z,54.00
2022-08-10T23:58:33.242Z,54.20
